Terminal Aerodrome Forecast
Issued by NWS

Home | Current Version | Previous Version | Text Only | Print | Product List | Glossary On
Versions: 1 2 3 4 5 6 7 8 9 10 11 12 13 14 15 16 17 18 19
397
FTAK31 PAJN 242334
TAFASI
TAF
PASI 242334Z 2500/2524 19010KT 5SM -SHRA BR SCT014 BKN025 OVC035
      TEMPO 2500/2503 3SM -SHRA BR BKN014 OVC025
     FM250300 17006KT P6SM VCSH SCT020 OVC035=

USA.gov is the U.S. government's official web portal to all federal, state and local government web resources and services.